createdAt,value
2022-10-11T00:01:21.171Z,4.43
2022-10-11T00:03:47.798Z,4.67
2022-10-11T00:06:14.409Z,4.50
2022-10-11T00:08:41.004Z,4.57
2022-10-11T00:11:08.600Z,4.40
2022-10-11T00:13:36.102Z,4.20
2022-10-11T00:16:08.499Z,4.57
2022-10-11T00:18:35.396Z,4.23
2022-10-11T00:21:06.842Z,4.30
2022-10-11T00:23:33.633Z,4.10
2022-10-11T00:26:02.675Z,4.40
2022-10-11T00:28:37.628Z,4.63
2022-10-11T00:31:11.133Z,4.60
2022-10-11T00:33:37.765Z,4.67
2022-10-11T00:36:05.087Z,4.93
2022-10-11T00:38:32.216Z,4.87
2022-10-11T00:40:59.854Z,5.13
2022-10-11T00:43:29.057Z,5.03
2022-10-11T00:45:55.604Z,4.23
2022-10-11T00:48:29.846Z,4.53
2022-10-11T00:50:58.390Z,5.60
2022-10-11T00:53:25.742Z,6.83
2022-10-11T00:55:57.919Z,6.07
2022-10-11T00:58:24.972Z,4.93
2022-10-11T01:00:51.979Z,4.80
2022-10-11T01:03:20.491Z,4.53
2022-10-11T01:05:47.463Z,4.70
2022-10-11T01:08:14.048Z,4.53
2022-10-11T01:10:40.822Z,4.47
2022-10-11T01:13:20.998Z,4.50
2022-10-11T01:15:57.063Z,3.93
2022-10-11T01:18:52.065Z,4.20
2022-10-11T01:21:31.277Z,4.17
2022-10-11T01:24:08.900Z,4.00
2022-10-11T01:26:53.843Z,3.80
2022-10-11T01:30:17.281Z,3.60
2022-10-11T01:33:28.855Z,3.90
2022-10-11T01:35:58.319Z,3.50
2022-10-11T01:38:33.389Z,3.70
2022-10-11T01:41:04.807Z,3.80
2022-10-11T01:43:31.927Z,3.70
2022-10-11T01:46:00.268Z,3.40
2022-10-11T01:48:26.852Z,3.87
2022-10-11T01:50:56.098Z,3.60
2022-10-11T01:53:31.527Z,3.97
2022-10-11T01:56:09.434Z,3.60
2022-10-11T01:58:45.027Z,4.00
2022-10-11T02:01:24.431Z,3.60
2022-10-11T02:04:11.210Z,3.37
2022-10-11T02:07:01.648Z,3.60
2022-10-11T02:09:35.456Z,3.57
2022-10-11T02:12:05.950Z,3.40
2022-10-11T02:14:35.909Z,3.60
2022-10-11T02:17:07.745Z,3.50
2022-10-11T02:19:41.756Z,3.57
2022-10-11T02:22:19.683Z,3.20
2022-10-11T02:24:49.447Z,3.50
2022-10-11T02:27:18.029Z,3.50
2022-10-11T02:29:45.589Z,4.00
2022-10-11T02:32:13.412Z,4.00
2022-10-11T02:34:51.333Z,3.90
2022-10-11T02:37:41.399Z,3.60
2022-10-11T02:40:21.347Z,3.60
2022-10-11T02:43:01.412Z,3.70
2022-10-11T02:45:31.597Z,3.97
2022-10-11T02:47:58.544Z,4.00
2022-10-11T02:50:25.169Z,4.03
2022-10-11T02:52:51.772Z,3.60
2022-10-11T02:55:18.512Z,3.73
2022-10-11T02:57:45.148Z,3.47
2022-10-11T03:00:12.378Z,3.57
2022-10-11T03:02:44.981Z,3.73
2022-10-11T03:05:11.613Z,3.50
2022-10-11T03:07:38.375Z,3.70
2022-10-11T03:10:06.168Z,3.57
2022-10-11T03:12:32.806Z,3.63
2022-10-11T03:14:59.428Z,3.47
2022-10-11T03:17:42.043Z,3.60
2022-10-11T03:20:09.036Z,3.33
2022-10-11T03:22:35.695Z,3.60
2022-10-11T03:25:04.428Z,3.40
2022-10-11T03:27:32.744Z,3.57
2022-10-11T03:29:59.570Z,3.30
2022-10-11T03:32:26.202Z,3.60
2022-10-11T03:34:52.945Z,3.20
2022-10-11T03:37:19.565Z,3.43
2022-10-11T03:39:46.211Z,3.40
2022-10-11T03:42:13.563Z,3.70
2022-10-11T03:44:41.764Z,3.43
2022-10-11T03:47:08.831Z,3.47
2022-10-11T03:49:38.843Z,3.50
2022-10-11T03:52:09.422Z,3.20
2022-10-11T03:54:36.051Z,3.23
2022-10-11T03:57:02.669Z,3.43
2022-10-11T03:59:29.325Z,3.03
2022-10-11T04:01:56.067Z,3.00
2022-10-11T04:04:22.721Z,3.50
2022-10-11T04:06:49.670Z,3.67
2022-10-11T04:09:16.290Z,3.30
2022-10-11T04:11:42.926Z,3.47
2022-10-11T04:14:09.549Z,2.97
2022-10-11T04:16:38.744Z,3.40
2022-10-11T04:19:05.485Z,3.57
2022-10-11T04:21:32.258Z,3.20
2022-10-11T04:23:58.881Z,3.43
2022-10-11T04:26:25.495Z,2.93
2022-10-11T04:28:55.205Z,3.27
2022-10-11T04:31:21.969Z,3.40
2022-10-11T04:33:54.710Z,3.40
2022-10-11T04:36:21.298Z,3.80
2022-10-11T04:38:47.930Z,3.37
2022-10-11T04:41:14.911Z,3.57
2022-10-11T04:43:41.908Z,3.93
2022-10-11T04:46:09.921Z,3.67
2022-10-11T04:48:37.159Z,3.63
2022-10-11T04:51:03.877Z,3.57
2022-10-11T04:53:30.601Z,3.70
2022-10-11T04:55:58.603Z,3.37
2022-10-11T04:58:25.320Z,4.10
2022-10-11T05:00:51.986Z,3.73
2022-10-11T05:03:18.631Z,3.70
2022-10-11T05:05:45.273Z,4.17
2022-10-11T05:08:12.324Z,3.80
2022-10-11T05:10:38.967Z,3.83
2022-10-11T05:13:05.718Z,3.70
2022-10-11T05:15:32.669Z,4.00
2022-10-11T05:17:59.381Z,4.30
2022-10-11T05:20:26.252Z,4.40
2022-10-11T05:22:52.864Z,4.30
2022-10-11T05:25:19.447Z,4.13
2022-10-11T05:27:46.057Z,4.13
2022-10-11T05:30:12.832Z,4.53
2022-10-11T05:32:39.474Z,4.47
2022-10-11T05:35:07.095Z,4.97
2022-10-11T05:37:33.732Z,4.80
2022-10-11T05:40:00.329Z,4.97
2022-10-11T05:42:26.922Z,5.40
2022-10-11T05:44:53.561Z,5.53
2022-10-11T05:47:20.184Z,6.07
2022-10-11T05:49:46.819Z,5.57
2022-10-11T05:52:13.781Z,6.23
2022-10-11T05:54:40.528Z,5.57
2022-10-11T05:57:07.152Z,6.27
2022-10-11T05:59:35.386Z,5.30
2022-10-11T06:02:02.103Z,6.17
2022-10-11T06:04:28.823Z,6.03
2022-10-11T06:06:55.510Z,5.70
2022-10-11T06:09:22.179Z,5.50
2022-10-11T06:11:48.883Z,5.87
2022-10-11T06:14:15.552Z,5.17
2022-10-11T06:16:42.194Z,5.00
2022-10-11T06:19:09.002Z,5.50
2022-10-11T06:21:35.763Z,5.60
2022-10-11T06:24:02.775Z,5.77
2022-10-11T06:26:29.789Z,5.23
2022-10-11T06:28:56.919Z,5.13
2022-10-11T06:31:23.678Z,5.20
2022-10-11T06:33:50.417Z,5.17
2022-10-11T06:36:17.564Z,5.90
2022-10-11T06:38:45.349Z,4.90
2022-10-11T06:41:22.118Z,5.73
2022-10-11T06:43:51.667Z,5.00
2022-10-11T06:46:20.157Z,5.87
2022-10-11T06:48:47.820Z,6.03
2022-10-11T06:51:16.179Z,6.07
2022-10-11T06:53:43.263Z,6.57
2022-10-11T06:56:12.092Z,6.00
2022-10-11T06:58:39.817Z,6.40
2022-10-11T07:01:09.128Z,6.57
2022-10-11T07:03:36.112Z,7.67
2022-10-11T07:06:08.020Z,6.90
2022-10-11T07:08:35.380Z,7.70
2022-10-11T07:11:22.516Z,7.37
2022-10-11T07:13:51.284Z,7.50
2022-10-11T07:16:18.470Z,7.80
2022-10-11T07:18:45.473Z,7.73
2022-10-11T07:21:14.960Z,8.40
2022-10-11T07:23:42.617Z,8.10
2022-10-11T07:26:10.334Z,8.13
2022-10-11T07:28:37.985Z,7.90
2022-10-11T07:31:13.795Z,8.00
2022-10-11T07:33:40.682Z,8.30
2022-10-11T07:36:08.145Z,8.47
2022-10-11T07:38:35.758Z,8.47
2022-10-11T07:41:06.216Z,8.87
2022-10-11T07:43:33.218Z,8.50
2022-10-11T07:46:05.125Z,7.87
2022-10-11T07:48:35.656Z,8.40
2022-10-11T07:51:11.140Z,8.77
2022-10-11T07:53:42.891Z,8.80
2022-10-11T07:56:12.574Z,8.80
2022-10-11T07:58:40.504Z,8.37
2022-10-11T08:01:07.732Z,9.27
2022-10-11T08:03:34.702Z,8.60
2022-10-11T08:06:07.469Z,9.63
2022-10-11T08:08:34.469Z,8.27
2022-10-11T08:11:01.208Z,8.47
2022-10-11T08:13:28.010Z,8.57
2022-10-11T08:15:54.879Z,8.23
2022-10-11T08:18:21.769Z,8.73
2022-10-11T08:20:48.849Z,8.40
2022-10-11T08:23:16.938Z,8.50
2022-10-11T08:25:46.246Z,9.13
2022-10-11T08:28:17.048Z,8.30
2022-10-11T08:30:51.038Z,8.07
2022-10-11T08:33:18.650Z,8.60
2022-10-11T08:35:45.521Z,8.60
2022-10-11T08:38:12.561Z,8.70
2022-10-11T08:40:55.397Z,9.30
2022-10-11T08:43:43.862Z,8.07
2022-10-11T08:46:11.081Z,8.20
2022-10-11T08:48:48.852Z,8.40
2022-10-11T08:51:39.372Z,8.27
2022-10-11T08:54:21.029Z,7.97
2022-10-11T08:56:47.736Z,8.53
2022-10-11T08:59:29.690Z,7.67
2022-10-11T09:02:13.459Z,8.47
2022-10-11T09:04:40.143Z,7.70
2022-10-11T09:07:39.609Z,7.93
2022-10-11T09:10:09.626Z,8.20
2022-10-11T09:13:01.130Z,8.40
2022-10-11T09:15:56.916Z,8.77
2022-10-11T09:18:26.656Z,9.00
2022-10-11T09:20:53.274Z,8.87
2022-10-11T09:24:08.153Z,9.37
2022-10-11T09:26:51.863Z,8.93
2022-10-11T09:29:25.121Z,7.20
2022-10-11T09:31:54.328Z,6.97
2022-10-11T09:34:23.963Z,7.17
2022-10-11T09:36:58.189Z,8.00
2022-10-11T09:39:29.412Z,8.77
2022-10-11T09:42:01.551Z,8.83
2022-10-11T09:44:39.583Z,9.60
2022-10-11T09:47:07.051Z,11.40
2022-10-11T09:49:41.357Z,11.10
2022-10-11T09:52:15.509Z,9.40
2022-10-11T09:54:48.236Z,8.53
2022-10-11T09:57:36.556Z,9.10
2022-10-11T10:00:12.306Z,8.73
2022-10-11T10:02:47.215Z,8.10
2022-10-11T10:05:25.724Z,7.33
2022-10-11T10:08:20.440Z,7.77
2022-10-11T10:10:59.410Z,7.30
2022-10-11T10:13:46.204Z,6.87
2022-10-11T10:16:27.754Z,7.87
2022-10-11T10:19:16.330Z,7.83
2022-10-11T10:21:49.162Z,8.03
2022-10-11T10:24:33.976Z,8.00
2022-10-11T10:27:08.587Z,7.63
2022-10-11T10:29:36.084Z,7.93
2022-10-11T10:32:14.975Z,7.77
2022-10-11T10:34:55.852Z,8.07
2022-10-11T10:37:25.374Z,8.00
2022-10-11T10:39:59.344Z,8.10
2022-10-11T10:42:25.993Z,8.00
2022-10-11T10:45:00.120Z,8.73
2022-10-11T10:47:51.627Z,9.00
2022-10-11T10:50:39.948Z,9.43
2022-10-11T10:53:20.398Z,9.63
2022-10-11T10:56:02.436Z,9.67
2022-10-11T10:59:11.038Z,9.50
2022-10-11T11:01:50.185Z,10.07
2022-10-11T11:04:32.441Z,12.20
2022-10-11T11:07:03.386Z,12.13
2022-10-11T11:09:37.957Z,12.97
2022-10-11T11:12:14.413Z,12.57
2022-10-11T11:14:59.417Z,11.23
2022-10-11T11:17:42.625Z,11.00
2022-10-11T11:20:21.647Z,11.53
2022-10-11T11:23:01.101Z,10.20
2022-10-11T11:25:44.538Z,11.33
2022-10-11T11:28:39.027Z,10.33
2022-10-11T11:31:40.941Z,12.00
2022-10-11T11:34:22.397Z,11.07
2022-10-11T11:36:56.607Z,11.73
2022-10-11T11:39:28.738Z,10.43
2022-10-11T11:42:05.013Z,10.00
2022-10-11T11:44:34.363Z,7.87
2022-10-11T11:47:04.390Z,7.13
2022-10-11T11:49:37.201Z,6.20
2022-10-11T11:52:08.497Z,6.60
2022-10-11T11:54:50.270Z,6.13
2022-10-11T11:57:48.872Z,8.10
2022-10-11T12:00:24.182Z,7.80
2022-10-11T12:02:54.927Z,6.47
2022-10-11T12:05:25.894Z,6.87
2022-10-11T12:10:49.931Z,6.77
2022-10-11T12:14:13.837Z,8.73
2022-10-11T12:23:00.615Z,5.77
2022-10-11T12:25:27.211Z,4.80
2022-10-11T12:27:56.534Z,4.07
2022-10-11T12:30:47.046Z,3.73
2022-10-11T12:33:16.568Z,2.93
2022-10-11T12:35:57.460Z,3.30
2022-10-11T12:38:31.355Z,3.73
2022-10-11T12:41:02.286Z,2.90
2022-10-11T12:43:36.355Z,3.00
2022-10-11T12:46:47.379Z,2.90
2022-10-11T12:49:36.418Z,2.73
2022-10-11T12:52:05.137Z,3.60
2022-10-11T12:54:37.646Z,3.53
2022-10-11T13:07:23.500Z,2.40
2022-10-11T13:10:11.409Z,2.50
2022-10-11T13:12:42.069Z,2.53
2022-10-11T13:15:14.907Z,2.20
2022-10-11T13:17:41.984Z,2.20
2022-10-11T13:20:18.147Z,2.30
2022-10-11T13:22:51.604Z,2.17
2022-10-11T13:25:37.329Z,2.10
2022-10-11T13:28:04.145Z,1.90
2022-10-11T13:30:34.422Z,2.53
2022-10-11T13:33:01.814Z,2.37
2022-10-11T13:35:32.399Z,1.73
2022-10-11T13:37:59.590Z,2.20
2022-10-11T13:40:27.212Z,1.90
2022-10-11T13:42:56.772Z,1.90
2022-10-11T13:45:25.740Z,1.70
2022-10-11T13:47:53.756Z,1.90
2022-10-11T13:50:30.610Z,2.00
2022-10-11T13:53:09.845Z,1.90
2022-10-11T13:55:42.600Z,2.00
2022-10-11T13:58:19.303Z,1.90
2022-10-11T14:00:57.168Z,1.90
2022-10-11T14:03:27.002Z,2.13
2022-10-11T14:06:04.636Z,1.73
2022-10-11T14:08:38.306Z,2.10
2022-10-11T14:11:06.896Z,1.83
2022-10-11T14:13:44.156Z,1.93
2022-10-11T14:16:29.596Z,1.73
2022-10-11T14:18:59.117Z,2.10
2022-10-11T14:21:47.276Z,1.87
2022-10-11T14:24:16.095Z,1.83
2022-10-11T14:26:44.211Z,1.90
2022-10-11T14:29:26.557Z,1.67
2022-10-11T14:31:59.035Z,1.87
2022-10-11T14:34:26.029Z,1.90
2022-10-11T14:36:53.719Z,1.70
2022-10-11T14:39:25.654Z,1.80
2022-10-11T14:41:52.887Z,1.70
2022-10-11T14:44:21.074Z,1.67
2022-10-11T14:46:49.317Z,1.97
2022-10-11T14:49:20.407Z,2.20
2022-10-11T14:51:48.936Z,2.00
2022-10-11T14:54:18.091Z,1.90
2022-10-11T14:56:45.733Z,1.73
2022-10-11T14:59:15.378Z,1.93
2022-10-11T15:01:42.317Z,1.70
2022-10-11T15:04:09.236Z,1.83
2022-10-11T15:06:38.366Z,2.33
2022-10-11T15:09:06.326Z,1.77
2022-10-11T15:11:43.536Z,1.57
2022-10-11T15:14:10.199Z,2.00
2022-10-11T15:16:36.978Z,1.60
2022-10-11T15:19:24.904Z,1.40
2022-10-11T15:21:51.878Z,1.70
2022-10-11T15:24:21.612Z,1.60
2022-10-11T15:26:49.008Z,1.50
2022-10-11T15:29:17.959Z,1.90
2022-10-11T15:31:49.932Z,1.63
2022-10-11T15:34:17.088Z,1.60
2022-10-11T15:36:44.309Z,1.50
2022-10-11T15:39:24.693Z,1.70
2022-10-11T15:41:57.766Z,1.70
2022-10-11T15:44:24.695Z,2.10
2022-10-11T15:47:01.703Z,1.80
2022-10-11T15:49:28.863Z,1.83
2022-10-11T15:51:55.516Z,1.80
2022-10-11T15:54:22.253Z,1.50
2022-10-11T15:56:48.876Z,1.90
2022-10-11T15:59:15.518Z,2.40
2022-10-11T16:01:42.312Z,1.97
2022-10-11T16:04:09.733Z,2.37
2022-10-11T16:06:38.742Z,2.00
2022-10-11T16:09:05.448Z,2.03
2022-10-11T16:11:32.042Z,2.00
2022-10-11T16:13:58.667Z,2.40
2022-10-11T16:16:25.268Z,2.33
2022-10-11T16:18:51.859Z,2.00
2022-10-11T16:21:20.479Z,1.90
2022-10-11T16:23:47.029Z,2.10
2022-10-11T16:26:14.036Z,2.17
2022-10-11T16:28:47.681Z,2.50
2022-10-11T16:31:21.044Z,2.53
2022-10-11T16:33:48.122Z,2.33
2022-10-11T16:36:32.082Z,2.53
2022-10-11T16:38:59.374Z,2.77
2022-10-11T16:41:25.988Z,2.40
2022-10-11T16:43:54.576Z,2.50
2022-10-11T16:46:22.165Z,2.30
2022-10-11T16:48:49.042Z,2.77
2022-10-11T16:51:15.682Z,2.80
2022-10-11T16:53:42.377Z,2.50
2022-10-11T16:56:10.088Z,2.87
2022-10-11T16:58:36.951Z,2.80
2022-10-11T17:01:08.813Z,3.00
2022-10-11T17:03:35.602Z,2.90
2022-10-11T17:06:02.617Z,2.87
2022-10-11T17:08:29.529Z,3.17
2022-10-11T17:10:57.759Z,2.73
2022-10-11T17:13:24.817Z,3.00
2022-10-11T17:15:51.575Z,3.03
2022-10-11T17:18:23.283Z,3.20
2022-10-11T17:20:50.035Z,2.87
2022-10-11T17:23:16.637Z,3.03
2022-10-11T17:25:45.106Z,2.77
2022-10-11T17:28:17.769Z,3.03
2022-10-11T17:30:53.428Z,2.77
2022-10-11T17:33:20.023Z,3.07
2022-10-11T17:35:46.702Z,3.13
2022-10-11T17:38:13.268Z,3.30
2022-10-11T17:40:39.931Z,3.80
2022-10-11T17:43:06.539Z,3.10
2022-10-11T17:45:33.153Z,3.63
2022-10-11T17:48:00.700Z,3.37
2022-10-11T17:50:27.358Z,3.57
2022-10-11T17:52:53.988Z,3.30
2022-10-11T17:55:20.686Z,3.50
2022-10-11T17:57:47.359Z,3.87
2022-10-11T18:00:14.602Z,3.73
2022-10-11T18:02:41.728Z,4.03
2022-10-11T18:05:08.791Z,4.60
2022-10-11T18:07:35.403Z,3.70
2022-10-11T18:10:02.049Z,4.40
2022-10-11T18:12:28.840Z,4.47
2022-10-11T18:14:55.424Z,4.53
2022-10-11T18:17:22.038Z,4.37
2022-10-11T18:19:48.690Z,4.43
2022-10-11T18:22:15.417Z,4.67
2022-10-11T18:24:41.976Z,4.90
2022-10-11T18:27:08.644Z,4.90
2022-10-11T18:29:35.261Z,5.43
2022-10-11T18:32:01.832Z,4.33
2022-10-11T18:34:28.418Z,4.30
2022-10-11T18:36:55.382Z,4.63
2022-10-11T18:39:22.196Z,4.30
2022-10-11T18:41:48.828Z,4.90
2022-10-11T18:44:15.877Z,4.83
2022-10-11T18:46:42.940Z,4.43
2022-10-11T18:49:09.928Z,4.97
2022-10-11T18:51:38.592Z,4.60
2022-10-11T18:54:06.180Z,4.23
2022-10-11T18:56:34.683Z,4.07
2022-10-11T18:59:01.399Z,4.17
2022-10-11T19:01:30.752Z,4.43
2022-10-11T19:03:59.243Z,4.80
2022-10-11T19:06:34.804Z,4.47
2022-10-11T19:09:06.476Z,5.10
2022-10-11T19:11:33.459Z,5.27
2022-10-11T19:14:01.390Z,5.20
2022-10-11T19:16:29.880Z,5.40
2022-10-11T19:18:57.445Z,5.23
2022-10-11T19:21:24.402Z,5.53
2022-10-11T19:23:51.298Z,5.07
2022-10-11T19:26:20.703Z,5.30
2022-10-11T19:28:48.212Z,5.17
2022-10-11T19:31:17.115Z,5.90
2022-10-11T19:33:45.385Z,5.30
2022-10-11T19:36:14.136Z,5.57
2022-10-11T19:38:44.338Z,5.80
2022-10-11T19:41:11.677Z,4.70
2022-10-11T19:43:38.359Z,5.70
2022-10-11T19:46:07.673Z,5.77
2022-10-11T19:48:38.168Z,5.80
2022-10-11T19:51:10.312Z,5.63
2022-10-11T19:53:37.003Z,5.30
2022-10-11T19:56:05.981Z,5.40
2022-10-11T19:58:32.932Z,5.40
2022-10-11T20:01:05.233Z,5.50
2022-10-11T20:03:32.064Z,5.60
2022-10-11T20:06:00.501Z,5.17
2022-10-11T20:08:28.585Z,5.03
2022-10-11T20:10:55.413Z,4.93
2022-10-11T20:13:22.140Z,4.43
2022-10-11T20:15:49.155Z,4.70
2022-10-11T20:18:15.839Z,4.93
2022-10-11T20:20:55.682Z,5.33
2022-10-11T20:23:27.353Z,5.00
2022-10-11T20:26:15.110Z,4.80
2022-10-11T20:28:43.007Z,4.87
2022-10-11T20:31:33.438Z,4.90
2022-10-11T20:34:02.452Z,4.60
2022-10-11T20:36:32.455Z,5.00
2022-10-11T20:38:59.975Z,4.73
2022-10-11T20:41:29.274Z,4.83
2022-10-11T20:43:57.800Z,4.67
2022-10-11T20:46:28.163Z,4.77
2022-10-11T20:49:01.378Z,5.00
2022-10-11T20:51:29.600Z,5.13
2022-10-11T20:53:56.601Z,4.70
2022-10-11T20:56:23.627Z,5.37
2022-10-11T20:58:52.453Z,4.70
2022-10-11T21:01:21.536Z,4.53
2022-10-11T21:03:48.329Z,4.40
2022-10-11T21:06:14.947Z,4.13
2022-10-11T21:08:41.687Z,4.50
2022-10-11T21:11:08.764Z,4.57
2022-10-11T21:13:35.570Z,4.57
2022-10-11T21:16:12.921Z,4.40
2022-10-11T21:18:39.768Z,4.40
2022-10-11T21:21:11.442Z,4.70
2022-10-11T21:23:38.500Z,5.00
2022-10-11T21:26:07.589Z,4.20
2022-10-11T21:28:34.700Z,4.83
2022-10-11T21:31:09.256Z,4.53
2022-10-11T21:33:36.622Z,3.87
2022-10-11T21:36:05.335Z,4.63
2022-10-11T21:38:32.460Z,3.90
2022-10-11T21:40:59.081Z,4.10
2022-10-11T21:43:25.686Z,3.73
2022-10-11T21:45:52.283Z,4.07
2022-10-11T21:48:18.891Z,4.20
2022-10-11T21:50:52.554Z,4.33
2022-10-11T21:53:19.232Z,3.83
2022-10-11T21:55:45.833Z,4.00
2022-10-11T21:58:12.535Z,4.50
2022-10-11T22:00:39.403Z,3.53
2022-10-11T22:03:05.982Z,4.10
2022-10-11T22:05:32.790Z,4.37
2022-10-11T22:07:59.437Z,4.17
2022-10-11T22:10:26.106Z,3.43
2022-10-11T22:12:52.880Z,4.33
2022-10-11T22:15:19.425Z,3.97
2022-10-11T22:17:46.372Z,3.63
2022-10-11T22:20:12.942Z,3.47
2022-10-11T22:22:39.539Z,3.93
2022-10-11T22:25:06.617Z,3.60
2022-10-11T22:27:33.240Z,3.90
2022-10-11T22:29:59.859Z,3.70
2022-10-11T22:32:26.587Z,3.87
2022-10-11T22:34:53.194Z,3.77
2022-10-11T22:37:19.793Z,4.10
2022-10-11T22:39:46.517Z,4.53
2022-10-11T22:42:13.155Z,4.20
2022-10-11T22:44:39.876Z,4.70
2022-10-11T22:47:06.504Z,4.57
2022-10-11T22:49:39.161Z,4.77
2022-10-11T22:52:05.763Z,5.10
2022-10-11T22:54:34.015Z,4.87
2022-10-11T22:57:00.736Z,4.60
2022-10-11T22:59:27.357Z,4.37
2022-10-11T23:01:53.964Z,5.70
2022-10-11T23:04:21.015Z,4.93
2022-10-11T23:06:47.581Z,4.47
2022-10-11T23:09:14.237Z,4.67
2022-10-11T23:11:40.840Z,4.67
2022-10-11T23:14:08.012Z,4.33
2022-10-11T23:16:34.638Z,4.90
2022-10-11T23:19:01.268Z,5.40
2022-10-11T23:21:27.876Z,5.00
2022-10-11T23:23:55.353Z,5.13
2022-10-11T23:26:21.979Z,5.07
2022-10-11T23:28:48.715Z,5.10
2022-10-11T23:31:17.596Z,4.80
2022-10-11T23:33:45.174Z,4.83
2022-10-11T23:36:15.890Z,4.80
2022-10-11T23:38:42.817Z,5.00
2022-10-11T23:41:09.415Z,5.10
2022-10-11T23:43:36.032Z,4.67
2022-10-11T23:46:02.711Z,4.90
2022-10-11T23:48:29.366Z,4.73
2022-10-11T23:50:55.929Z,4.87
2022-10-11T23:53:22.540Z,5.07
2022-10-11T23:55:49.172Z,4.87
2022-10-11T23:58:15.806Z,5.20
